sensor_id;sensor_type;location;lat;lon;timestamp;pressure;altitude;pressure_sealevel;temperature;humidity
2184;BME280;1098;48.940;8.962;2023-04-06T00:01:56;98782.66;;;1.79;100.00
2184;BME280;1098;48.940;8.962;2023-04-06T00:04:25;98781.72;;;2.04;100.00
2184;BME280;1098;48.940;8.962;2023-04-06T00:06:53;98778.09;;;1.47;100.00
2184;BME280;1098;48.940;8.962;2023-04-06T00:09:21;98776.13;;;1.07;100.00
2184;BME280;1098;48.940;8.962;2023-04-06T00:11:49;98773.44;;;1.41;100.00
2184;BME280;1098;48.940;8.962;2023-04-06T00:14:17;98772.28;;;1.44;100.00
2184;BME280;1098;48.940;8.962;2023-04-06T00:16:48;98767.38;;;1.23;100.00
2184;BME280;1098;48.940;8.962;2023-04-06T00:19:20;98774.84;;;1.19;100.00
2184;BME280;1098;48.940;8.962;2023-04-06T00:21:48;98766.66;;;1.13;100.00
2184;BME280;1098;48.940;8.962;2023-04-06T00:24:17;98762.75;;;0.91;100.00
2184;BME280;1098;48.940;8.962;2023-04-06T00:26:45;98763.16;;;1.12;100.00
2184;BME280;1098;48.940;8.962;2023-04-06T00:29:14;98758.81;;;1.03;100.00
2184;BME280;1098;48.940;8.962;2023-04-06T00:31:42;98761.97;;;0.98;100.00
2184;BME280;1098;48.940;8.962;2023-04-06T00:34:10;98768.84;;;0.83;100.00
2184;BME280;1098;48.940;8.962;2023-04-06T00:36:39;98762.34;;;0.78;100.00
2184;BME280;1098;48.940;8.962;2023-04-06T00:39:08;98760.31;;;0.72;100.00
2184;BME280;1098;48.940;8.962;2023-04-06T00:41:38;98756.78;;;0.63;100.00
2184;BME280;1098;48.940;8.962;2023-04-06T00:44:07;98752.94;;;0.57;100.00
2184;BME280;1098;48.940;8.962;2023-04-06T00:46:35;98750.81;;;0.69;100.00
2184;BME280;1098;48.940;8.962;2023-04-06T00:49:03;98754.31;;;0.69;100.00
2184;BME280;1098;48.940;8.962;2023-04-06T00:51:32;98741.94;;;0.86;100.00
2184;BME280;1098;48.940;8.962;2023-04-06T00:54:02;98747.91;;;0.80;100.00
2184;BME280;1098;48.940;8.962;2023-04-06T00:56:31;98748.94;;;0.87;100.00
2184;BME280;1098;48.940;8.962;2023-04-06T00:59:00;98747.19;;;0.70;100.00
2184;BME280;1098;48.940;8.962;2023-04-06T01:01:28;98749.44;;;0.57;100.00
2184;BME280;1098;48.940;8.962;2023-04-06T01:04:01;98748.63;;;0.64;100.00
2184;BME280;1098;48.940;8.962;2023-04-06T01:06:35;98747.34;;;0.43;100.00
2184;BME280;1098;48.940;8.962;2023-04-06T01:09:05;98745.03;;;1.08;100.00
2184;BME280;1098;48.940;8.962;2023-04-06T01:11:33;98742.25;;;0.83;100.00
2184;BME280;1098;48.940;8.962;2023-04-06T01:14:06;98732.44;;;0.76;100.00
2184;BME280;1098;48.940;8.962;2023-04-06T01:16:46;98745.00;;;0.65;100.00
2184;BME280;1098;48.940;8.962;2023-04-06T01:19:17;98740.00;;;0.37;100.00
2184;BME280;1098;48.940;8.962;2023-04-06T01:21:50;98745.66;;;0.42;100.00
2184;BME280;1098;48.940;8.962;2023-04-06T01:24:21;98743.00;;;0.42;100.00
2184;BME280;1098;48.940;8.962;2023-04-06T01:27:02;98730.22;;;0.71;100.00
2184;BME280;1098;48.940;8.962;2023-04-06T01:29:49;98736.91;;;0.23;100.00
2184;BME280;1098;48.940;8.962;2023-04-06T01:32:47;98730.56;;;0.42;100.00
2184;BME280;1098;48.940;8.962;2023-04-06T01:35:20;98731.88;;;0.12;100.00
2184;BME280;1098;48.940;8.962;2023-04-06T01:37:59;98716.94;;;0.71;100.00
2184;BME280;1098;48.940;8.962;2023-04-06T01:40:33;98715.75;;;0.65;100.00
2184;BME280;1098;48.940;8.962;2023-04-06T01:43:01;98726.28;;;0.49;100.00
2184;BME280;1098;48.940;8.962;2023-04-06T01:45:35;98724.97;;;0.79;100.00
2184;BME280;1098;48.940;8.962;2023-04-06T01:48:13;98719.00;;;0.85;100.00
2184;BME280;1098;48.940;8.962;2023-04-06T01:50:41;98719.91;;;0.68;100.00
2184;BME280;1098;48.940;8.962;2023-04-06T01:53:13;98728.84;;;0.59;100.00
2184;BME280;1098;48.940;8.962;2023-04-06T01:55:45;98726.69;;;0.62;100.00
2184;BME280;1098;48.940;8.962;2023-04-06T01:58:30;98723.72;;;0.65;100.00
2184;BME280;1098;48.940;8.962;2023-04-06T02:00:59;98719.34;;;0.82;100.00
2184;BME280;1098;48.940;8.962;2023-04-06T02:03:33;98716.22;;;0.95;100.00
2184;BME280;1098;48.940;8.962;2023-04-06T02:06:06;98710.53;;;0.90;100.00
2184;BME280;1098;48.940;8.962;2023-04-06T02:08:38;98718.31;;;0.83;100.00
2184;BME280;1098;48.940;8.962;2023-04-06T02:11:08;98710.28;;;1.09;100.00
2184;BME280;1098;48.940;8.962;2023-04-06T02:13:42;98711.25;;;1.08;100.00
2184;BME280;1098;48.940;8.962;2023-04-06T02:16:11;98716.09;;;1.13;100.00
2184;BME280;1098;48.940;8.962;2023-04-06T02:18:42;98712.56;;;0.96;100.00
2184;BME280;1098;48.940;8.962;2023-04-06T02:21:11;98709.56;;;0.57;100.00
2184;BME280;1098;48.940;8.962;2023-04-06T02:23:39;98711.16;;;0.76;100.00
2184;BME280;1098;48.940;8.962;2023-04-06T02:26:09;98709.44;;;0.66;100.00
2184;BME280;1098;48.940;8.962;2023-04-06T02:28:37;98710.38;;;0.91;100.00
2184;BME280;1098;48.940;8.962;2023-04-06T02:31:06;98707.25;;;1.04;100.00
2184;BME280;1098;48.940;8.962;2023-04-06T02:33:35;98703.50;;;1.31;100.00
2184;BME280;1098;48.940;8.962;2023-04-06T02:36:04;98701.94;;;1.04;100.00
2184;BME280;1098;48.940;8.962;2023-04-06T02:38:33;98700.06;;;0.88;100.00
2184;BME280;1098;48.940;8.962;2023-04-06T02:41:02;98700.81;;;0.73;100.00
2184;BME280;1098;48.940;8.962;2023-04-06T02:43:32;98700.94;;;0.63;100.00
2184;BME280;1098;48.940;8.962;2023-04-06T02:46:05;98696.63;;;0.62;100.00
2184;BME280;1098;48.940;8.962;2023-04-06T02:48:37;98711.31;;;0.74;100.00
2184;BME280;1098;48.940;8.962;2023-04-06T02:51:05;98689.66;;;1.03;100.00
2184;BME280;1098;48.940;8.962;2023-04-06T02:53:36;98694.72;;;0.88;100.00
2184;BME280;1098;48.940;8.962;2023-04-06T02:56:05;98688.31;;;0.65;100.00
2184;BME280;1098;48.940;8.962;2023-04-06T02:58:45;98698.13;;;0.98;100.00
2184;BME280;1098;48.940;8.962;2023-04-06T03:01:14;98695.91;;;1.52;100.00
2184;BME280;1098;48.940;8.962;2023-04-06T03:03:42;98703.13;;;1.01;100.00
2184;BME280;1098;48.940;8.962;2023-04-06T03:06:18;98698.16;;;1.15;100.00
2184;BME280;1098;48.940;8.962;2023-04-06T03:08:52;98701.66;;;0.73;100.00
2184;BME280;1098;48.940;8.962;2023-04-06T03:11:20;98700.09;;;0.62;100.00
2184;BME280;1098;48.940;8.962;2023-04-06T03:13:52;98705.25;;;0.64;100.00
2184;BME280;1098;48.940;8.962;2023-04-06T03:16:20;98695.47;;;0.64;100.00
2184;BME280;1098;48.940;8.962;2023-04-06T03:18:49;98696.97;;;0.67;100.00
2184;BME280;1098;48.940;8.962;2023-04-06T03:21:17;98693.56;;;0.83;100.00
2184;BME280;1098;48.940;8.962;2023-04-06T03:23:51;98697.25;;;0.56;100.00
2184;BME280;1098;48.940;8.962;2023-04-06T03:26:19;98698.94;;;0.57;100.00
2184;BME280;1098;48.940;8.962;2023-04-06T03:28:50;98700.94;;;0.63;100.00
2184;BME280;1098;48.940;8.962;2023-04-06T03:31:24;98707.53;;;0.51;100.00
2184;BME280;1098;48.940;8.962;2023-04-06T03:33:57;98700.16;;;0.71;100.00
2184;BME280;1098;48.940;8.962;2023-04-06T03:36:30;98705.31;;;0.12;100.00
2184;BME280;1098;48.940;8.962;2023-04-06T03:38:59;98703.31;;;0.14;100.00
2184;BME280;1098;48.940;8.962;2023-04-06T03:41:30;98698.38;;;0.19;100.00
2184;BME280;1098;48.940;8.962;2023-04-06T03:44:07;98706.59;;;0.08;100.00
2184;BME280;1098;48.940;8.962;2023-04-06T03:46:37;98704.34;;;0.21;100.00
2184;BME280;1098;48.940;8.962;2023-04-06T03:49:07;98702.00;;;-0.08;100.00
2184;BME280;1098;48.940;8.962;2023-04-06T03:51:36;98706.59;;;0.08;100.00
2184;BME280;1098;48.940;8.962;2023-04-06T03:54:04;98705.72;;;-0.18;100.00
2184;BME280;1098;48.940;8.962;2023-04-06T03:56:32;98713.72;;;0.08;100.00
2184;BME280;1098;48.940;8.962;2023-04-06T03:59:02;98715.44;;;-0.09;100.00
2184;BME280;1098;48.940;8.962;2023-04-06T04:01:31;98711.19;;;-0.02;100.00
2184;BME280;1098;48.940;8.962;2023-04-06T04:04:01;98710.72;;;0.28;100.00
2184;BME280;1098;48.940;8.962;2023-04-06T04:06:30;98706.06;;;0.05;100.00
2184;BME280;1098;48.940;8.962;2023-04-06T04:08:59;98716.72;;;-0.13;100.00
2184;BME280;1098;48.940;8.962;2023-04-06T04:11:27;98727.34;;;-0.13;100.00
2184;BME280;1098;48.940;8.962;2023-04-06T04:13:58;98726.28;;;-0.03;100.00
2184;BME280;1098;48.940;8.962;2023-04-06T04:16:26;98707.84;;;0.22;100.00
2184;BME280;1098;48.940;8.962;2023-04-06T04:18:56;98714.00;;;0.22;100.00
2184;BME280;1098;48.940;8.962;2023-04-06T04:21:27;98720.38;;;-0.14;100.00
2184;BME280;1098;48.940;8.962;2023-04-06T04:23:56;98719.94;;;-0.27;100.00
2184;BME280;1098;48.940;8.962;2023-04-06T04:26:24;98715.34;;;-0.17;100.00
2184;BME280;1098;48.940;8.962;2023-04-06T04:28:53;98726.91;;;-0.26;100.00
2184;BME280;1098;48.940;8.962;2023-04-06T04:31:21;98724.69;;;-0.13;100.00
2184;BME280;1098;48.940;8.962;2023-04-06T04:33:55;98729.28;;;-0.23;100.00
2184;BME280;1098;48.940;8.962;2023-04-06T04:36:29;98727.75;;;-0.44;100.00
2184;BME280;1098;48.940;8.962;2023-04-06T04:39:01;98721.03;;;-0.12;100.00
2184;BME280;1098;48.940;8.962;2023-04-06T04:41:34;98706.19;;;-0.76;100.00
2184;BME280;1098;48.940;8.962;2023-04-06T04:44:07;98727.44;;;-0.58;100.00
2184;BME280;1098;48.940;8.962;2023-04-06T04:46:35;98724.03;;;-0.33;100.00
2184;BME280;1098;48.940;8.962;2023-04-06T04:49:04;98721.50;;;-0.17;100.00
2184;BME280;1098;48.940;8.962;2023-04-06T04:51:34;98721.47;;;-0.43;100.00
2184;BME280;1098;48.940;8.962;2023-04-06T04:54:09;98733.75;;;-0.24;100.00
2184;BME280;1098;48.940;8.962;2023-04-06T04:56:39;98729.56;;;-0.09;100.00
2184;BME280;1098;48.940;8.962;2023-04-06T04:59:27;98730.94;;;-0.22;100.00
2184;BME280;1098;48.940;8.962;2023-04-06T05:02:03;98731.09;;;-0.24;100.00
2184;BME280;1098;48.940;8.962;2023-04-06T05:04:49;98730.84;;;-0.30;100.00
2184;BME280;1098;48.940;8.962;2023-04-06T05:07:23;98733.56;;;-0.40;100.00
2184;BME280;1098;48.940;8.962;2023-04-06T05:09:53;98733.47;;;0.05;100.00
2184;BME280;1098;48.940;8.962;2023-04-06T05:12:25;98734.13;;;0.85;100.00
2184;BME280;1098;48.940;8.962;2023-04-06T05:15:05;98738.66;;;0.32;100.00
2184;BME280;1098;48.940;8.962;2023-04-06T05:17:34;98745.03;;;0.40;100.00
2184;BME280;1098;48.940;8.962;2023-04-06T05:20:02;98734.25;;;0.75;100.00
2184;BME280;1098;48.940;8.962;2023-04-06T05:22:37;98736.94;;;0.83;100.00
2184;BME280;1098;48.940;8.962;2023-04-06T05:25:09;98738.97;;;0.29;100.00
2184;BME280;1098;48.940;8.962;2023-04-06T05:27:38;98746.72;;;0.75;100.00
2184;BME280;1098;48.940;8.962;2023-04-06T05:30:17;98743.38;;;0.73;100.00
2184;BME280;1098;48.940;8.962;2023-04-06T05:32:47;98742.25;;;0.83;100.00
2184;BME280;1098;48.940;8.962;2023-04-06T05:35:16;98747.84;;;1.06;100.00
2184;BME280;1098;48.940;8.962;2023-04-06T05:37:50;98713.78;;;0.42;100.00
2184;BME280;1098;48.940;8.962;2023-04-06T05:40:22;98745.88;;;0.74;100.00
2184;BME280;1098;48.940;8.962;2023-04-06T05:42:51;98752.38;;;1.14;100.00
2184;BME280;1098;48.940;8.962;2023-04-06T05:45:20;98746.72;;;1.83;100.00
2184;BME280;1098;48.940;8.962;2023-04-06T05:47:53;98750.19;;;1.92;100.00
2184;BME280;1098;48.940;8.962;2023-04-06T05:50:25;98761.88;;;1.83;100.00
2184;BME280;1098;48.940;8.962;2023-04-06T05:52:54;98761.19;;;2.37;100.00
2184;BME280;1098;48.940;8.962;2023-04-06T05:55:27;98762.38;;;2.02;100.00
2184;BME280;1098;48.940;8.962;2023-04-06T05:58:07;98759.19;;;1.91;100.00
2184;BME280;1098;48.940;8.962;2023-04-06T06:00:35;98765.56;;;2.06;100.00
2184;BME280;1098;48.940;8.962;2023-04-06T06:03:06;98770.53;;;2.09;100.00
2184;BME280;1098;48.940;8.962;2023-04-06T06:05:36;98770.19;;;6.71;100.00
2184;BME280;1098;48.940;8.962;2023-04-06T06:08:11;98770.34;;;7.32;100.00
2184;BME280;1098;48.940;8.962;2023-04-06T06:10:42;98767.34;;;8.22;100.00
2184;BME280;1098;48.940;8.962;2023-04-06T06:13:12;98757.75;;;10.52;100.00
2184;BME280;1098;48.940;8.962;2023-04-06T06:15:41;98759.34;;;11.03;90.51
2184;BME280;1098;48.940;8.962;2023-04-06T06:18:09;98760.03;;;9.35;97.19
2184;BME280;1098;48.940;8.962;2023-04-06T06:20:38;98766.75;;;9.70;100.00
2184;BME280;1098;48.940;8.962;2023-04-06T06:23:06;98767.66;;;6.63;100.00
2184;BME280;1098;48.940;8.962;2023-04-06T06:25:36;98774.56;;;4.92;100.00
2184;BME280;1098;48.940;8.962;2023-04-06T06:28:07;98780.22;;;3.99;100.00
2184;BME280;1098;48.940;8.962;2023-04-06T06:30:36;98776.00;;;3.82;100.00
2184;BME280;1098;48.940;8.962;2023-04-06T06:33:04;98786.47;;;3.68;100.00
2184;BME280;1098;48.940;8.962;2023-04-06T06:35:32;98754.97;;;3.78;100.00
2184;BME280;1098;48.940;8.962;2023-04-06T06:38:03;98782.69;;;3.86;100.00
2184;BME280;1098;48.940;8.962;2023-04-06T06:40:32;98785.09;;;4.41;100.00
2184;BME280;1098;48.940;8.962;2023-04-06T06:43:02;98784.44;;;4.16;100.00
2184;BME280;1098;48.940;8.962;2023-04-06T06:45:45;98785.84;;;4.12;100.00
2184;BME280;1098;48.940;8.962;2023-04-06T06:48:13;98782.97;;;2.90;100.00
2184;BME280;1098;48.940;8.962;2023-04-06T06:50:42;98779.84;;;2.62;100.00
2184;BME280;1098;48.940;8.962;2023-04-06T06:53:11;98784.00;;;3.28;100.00
2184;BME280;1098;48.940;8.962;2023-04-06T06:55:40;98781.34;;;3.20;100.00
2184;BME280;1098;48.940;8.962;2023-04-06T06:58:12;98786.97;;;2.78;100.00
2184;BME280;1098;48.940;8.962;2023-04-06T07:00:40;98784.47;;;2.84;100.00
2184;BME280;1098;48.940;8.962;2023-04-06T07:03:08;98786.16;;;3.24;100.00
2184;BME280;1098;48.940;8.962;2023-04-06T07:05:37;98783.19;;;3.81;100.00
2184;BME280;1098;48.940;8.962;2023-04-06T07:08:07;98786.41;;;2.98;100.00
2184;BME280;1098;48.940;8.962;2023-04-06T07:10:35;98778.69;;;3.82;100.00
2184;BME280;1098;48.940;8.962;2023-04-06T07:13:03;98781.97;;;5.04;100.00
2184;BME280;1098;48.940;8.962;2023-04-06T07:15:33;98792.13;;;3.34;100.00
2184;BME280;1098;48.940;8.962;2023-04-06T07:18:02;98786.78;;;3.73;100.00
2184;BME280;1098;48.940;8.962;2023-04-06T07:20:30;98784.28;;;3.72;100.00
2184;BME280;1098;48.940;8.962;2023-04-06T07:22:58;98786.53;;;4.06;100.00
2184;BME280;1098;48.940;8.962;2023-04-06T07:25:26;98786.69;;;4.12;100.00
2184;BME280;1098;48.940;8.962;2023-04-06T07:27:55;98789.09;;;4.22;100.00
2184;BME280;1098;48.940;8.962;2023-04-06T07:30:24;98765.00;;;4.60;100.00
2184;BME280;1098;48.940;8.962;2023-04-06T07:32:56;98783.66;;;4.53;100.00
2184;BME280;1098;48.940;8.962;2023-04-06T07:35:28;98794.25;;;4.46;100.00
2184;BME280;1098;48.940;8.962;2023-04-06T07:37:57;98790.31;;;4.57;100.00
2184;BME280;1098;48.940;8.962;2023-04-06T07:40:25;98791.38;;;5.15;100.00
2184;BME280;1098;48.940;8.962;2023-04-06T07:42:54;98787.09;;;5.50;100.00
2184;BME280;1098;48.940;8.962;2023-04-06T07:45:24;98791.88;;;6.27;100.00
2184;BME280;1098;48.940;8.962;2023-04-06T07:47:53;98787.84;;;6.59;100.00
2184;BME280;1098;48.940;8.962;2023-04-06T07:50:25;98788.97;;;6.71;100.00
2184;BME280;1098;48.940;8.962;2023-04-06T07:52:54;98780.28;;;6.69;100.00
2184;BME280;1098;48.940;8.962;2023-04-06T07:55:24;98786.41;;;6.84;100.00
2184;BME280;1098;48.940;8.962;2023-04-06T07:57:52;98786.72;;;7.02;100.00
2184;BME280;1098;48.940;8.962;2023-04-06T08:00:21;98783.47;;;7.13;100.00
2184;BME280;1098;48.940;8.962;2023-04-06T08:02:49;98788.50;;;7.64;100.00
2184;BME280;1098;48.940;8.962;2023-04-06T08:05:18;98788.34;;;6.69;100.00
2184;BME280;1098;48.940;8.962;2023-04-06T08:07:47;98777.84;;;7.08;100.00
2184;BME280;1098;48.940;8.962;2023-04-06T08:10:16;98787.38;;;7.04;100.00
2184;BME280;1098;48.940;8.962;2023-04-06T08:12:44;98783.56;;;6.92;100.00
2184;BME280;1098;48.940;8.962;2023-04-06T08:15:12;98781.50;;;6.66;100.00
2184;BME280;1098;48.940;8.962;2023-04-06T08:17:40;98780.75;;;7.07;100.00
2184;BME280;1098;48.940;8.962;2023-04-06T08:20:09;98780.56;;;7.08;100.00
2184;BME280;1098;48.940;8.962;2023-04-06T08:22:37;98783.97;;;7.71;100.00
2184;BME280;1098;48.940;8.962;2023-04-06T08:25:08;98783.81;;;7.92;100.00
2184;BME280;1098;48.940;8.962;2023-04-06T08:27:36;98786.69;;;6.96;100.00
2184;BME280;1098;48.940;8.962;2023-04-06T08:30:05;98784.66;;;7.39;100.00
2184;BME280;1098;48.940;8.962;2023-04-06T08:32:33;98786.84;;;7.22;100.00
2184;BME280;1098;48.940;8.962;2023-04-06T08:35:01;98782.69;;;7.61;100.00
2184;BME280;1098;48.940;8.962;2023-04-06T08:37:30;98775.88;;;7.65;100.00
2184;BME280;1098;48.940;8.962;2023-04-06T08:39:58;98775.09;;;7.77;100.00
2184;BME280;1098;48.940;8.962;2023-04-06T08:42:28;98780.41;;;7.57;100.00
2184;BME280;1098;48.940;8.962;2023-04-06T08:44:59;98775.59;;;8.14;100.00
2184;BME280;1098;48.940;8.962;2023-04-06T08:47:28;98772.22;;;7.92;100.00
2184;BME280;1098;48.940;8.962;2023-04-06T08:49:56;98777.53;;;8.53;100.00
2184;BME280;1098;48.940;8.962;2023-04-06T08:52:26;98775.06;;;8.51;100.00
2184;BME280;1098;48.940;8.962;2023-04-06T08:54:54;98769.88;;;8.83;100.00
2184;BME280;1098;48.940;8.962;2023-04-06T08:57:22;98771.50;;;9.10;100.00
2184;BME280;1098;48.940;8.962;2023-04-06T08:59:53;98767.19;;;8.89;100.00
2184;BME280;1098;48.940;8.962;2023-04-06T09:02:22;98754.38;;;9.49;100.00
2184;BME280;1098;48.940;8.962;2023-04-06T09:04:52;98764.66;;;9.08;100.00
2184;BME280;1098;48.940;8.962;2023-04-06T09:07:21;98760.81;;;9.42;100.00
2184;BME280;1098;48.940;8.962;2023-04-06T09:09:52;98764.25;;;9.11;100.00
2184;BME280;1098;48.940;8.962;2023-04-06T09:12:25;98764.06;;;9.63;100.00
2184;BME280;1098;48.940;8.962;2023-04-06T09:14:55;98757.28;;;9.92;100.00
2184;BME280;1098;48.940;8.962;2023-04-06T09:17:23;98761.44;;;9.44;100.00
2184;BME280;1098;48.940;8.962;2023-04-06T09:19:52;98750.94;;;9.22;100.00
2184;BME280;1098;48.940;8.962;2023-04-06T09:22:20;98752.94;;;9.40;100.00
2184;BME280;1098;48.940;8.962;2023-04-06T09:24:49;98756.81;;;10.02;95.99
2184;BME280;1098;48.940;8.962;2023-04-06T09:27:19;98747.97;;;9.88;99.78
2184;BME280;1098;48.940;8.962;2023-04-06T09:30:04;98753.38;;;10.51;100.00
2184;BME280;1098;48.940;8.962;2023-04-06T09:32:43;98758.84;;;10.07;94.08
2184;BME280;1098;48.940;8.962;2023-04-06T09:35:12;98749.19;;;10.55;84.62
2184;BME280;1098;48.940;8.962;2023-04-06T09:37:41;98749.31;;;10.04;78.28
2184;BME280;1098;48.940;8.962;2023-04-06T09:40:09;98744.25;;;10.95;77.39
2184;BME280;1098;48.940;8.962;2023-04-06T09:42:38;98749.75;;;10.39;79.97
2184;BME280;1098;48.940;8.962;2023-04-06T09:45:10;98743.06;;;11.10;79.56
2184;BME280;1098;48.940;8.962;2023-04-06T09:47:39;98745.97;;;10.40;81.16
2184;BME280;1098;48.940;8.962;2023-04-06T09:50:09;98739.91;;;10.94;84.15
2184;BME280;1098;48.940;8.962;2023-04-06T09:52:40;98736.16;;;10.95;75.87
2184;BME280;1098;48.940;8.962;2023-04-06T09:55:09;98739.84;;;10.58;73.42
2184;BME280;1098;48.940;8.962;2023-04-06T09:57:38;98742.09;;;11.22;69.25
2184;BME280;1098;48.940;8.962;2023-04-06T10:00:11;98746.25;;;10.82;58.62
2184;BME280;1098;48.940;8.962;2023-04-06T10:02:45;98747.19;;;10.44;59.47
2184;BME280;1098;48.940;8.962;2023-04-06T10:05:19;98747.41;;;10.92;63.00
2184;BME280;1098;48.940;8.962;2023-04-06T10:07:47;98739.53;;;10.91;59.32
2184;BME280;1098;48.940;8.962;2023-04-06T10:10:27;98741.19;;;10.92;58.32
2184;BME280;1098;48.940;8.962;2023-04-06T10:12:55;98728.44;;;10.99;56.35
2184;BME280;1098;48.940;8.962;2023-04-06T10:15:25;98737.50;;;11.05;57.14
2184;BME280;1098;48.940;8.962;2023-04-06T10:17:55;98724.03;;;11.71;55.77
2184;BME280;1098;48.940;8.962;2023-04-06T10:20:25;98724.03;;;10.80;57.95
2184;BME280;1098;48.940;8.962;2023-04-06T10:22:57;98730.75;;;10.95;57.00
2184;BME280;1098;48.940;8.962;2023-04-06T10:25:27;98723.47;;;11.32;52.25
2184;BME280;1098;48.940;8.962;2023-04-06T10:27:59;98732.28;;;12.24;53.34
2184;BME280;1098;48.940;8.962;2023-04-06T10:30:29;98723.13;;;12.49;51.76
2184;BME280;1098;48.940;8.962;2023-04-06T10:32:57;98728.66;;;12.00;51.20
2184;BME280;1098;48.940;8.962;2023-04-06T10:35:35;98719.25;;;12.03;52.17
2184;BME280;1098;48.940;8.962;2023-04-06T10:38:04;98718.34;;;11.61;52.14
2184;BME280;1098;48.940;8.962;2023-04-06T10:40:34;98716.94;;;11.88;54.76
2184;BME280;1098;48.940;8.962;2023-04-06T10:43:07;98719.13;;;12.39;56.02
2184;BME280;1098;48.940;8.962;2023-04-06T10:45:39;98713.97;;;11.78;52.07
2184;BME280;1098;48.940;8.962;2023-04-06T10:48:13;98716.03;;;11.94;51.80
2184;BME280;1098;48.940;8.962;2023-04-06T10:50:41;98714.00;;;12.20;50.97
2184;BME280;1098;48.940;8.962;2023-04-06T10:53:10;98703.50;;;12.12;51.21
2184;BME280;1098;48.940;8.962;2023-04-06T10:55:38;98708.50;;;12.38;49.62
2184;BME280;1098;48.940;8.962;2023-04-06T10:58:07;98699.66;;;13.36;52.25
2184;BME280;1098;48.940;8.962;2023-04-06T11:00:44;98702.06;;;12.86;51.10
2184;BME280;1098;48.940;8.962;2023-04-06T11:03:17;98703.47;;;12.77;54.12
2184;BME280;1098;48.940;8.962;2023-04-06T11:05:48;98713.31;;;12.36;50.21
2184;BME280;1098;48.940;8.962;2023-04-06T11:08:23;98699.94;;;11.99;49.79
2184;BME280;1098;48.940;8.962;2023-04-06T11:10:51;98696.03;;;12.95;49.57
2184;BME280;1098;48.940;8.962;2023-04-06T11:13:19;98700.84;;;11.93;48.01
2184;BME280;1098;48.940;8.962;2023-04-06T11:15:49;98689.66;;;13.25;49.67
2184;BME280;1098;48.940;8.962;2023-04-06T11:18:17;98695.34;;;12.77;48.12
2184;BME280;1098;48.940;8.962;2023-04-06T11:20:49;98692.63;;;12.88;48.35
2184;BME280;1098;48.940;8.962;2023-04-06T11:23:23;98681.44;;;12.61;48.87
2184;BME280;1098;48.940;8.962;2023-04-06T11:25:52;98680.22;;;13.04;47.91
2184;BME280;1098;48.940;8.962;2023-04-06T11:28:20;98683.00;;;12.04;47.63
2184;BME280;1098;48.940;8.962;2023-04-06T11:30:50;98678.16;;;12.06;46.94
2184;BME280;1098;48.940;8.962;2023-04-06T11:33:21;98673.38;;;12.90;48.55
2184;BME280;1098;48.940;8.962;2023-04-06T11:35:50;98667.47;;;13.68;53.40
2184;BME280;1098;48.940;8.962;2023-04-06T11:38:18;98671.16;;;12.52;47.05
2184;BME280;1098;48.940;8.962;2023-04-06T11:40:51;98671.69;;;12.07;46.63
2184;BME280;1098;48.940;8.962;2023-04-06T11:43:25;98665.41;;;12.83;46.72
2184;BME280;1098;48.940;8.962;2023-04-06T11:46:00;98655.81;;;12.92;46.88
2184;BME280;1098;48.940;8.962;2023-04-06T11:48:29;98657.47;;;12.70;46.84
2184;BME280;1098;48.940;8.962;2023-04-06T11:51:01;98652.84;;;13.57;47.64
2184;BME280;1098;48.940;8.962;2023-04-06T11:53:31;98647.47;;;12.82;46.94
2184;BME280;1098;48.940;8.962;2023-04-06T11:56:00;98641.91;;;12.89;47.21
2184;BME280;1098;48.940;8.962;2023-04-06T11:58:29;98645.25;;;13.31;48.06
2184;BME280;1098;48.940;8.962;2023-04-06T12:01:04;98646.88;;;12.68;46.96
2184;BME280;1098;48.940;8.962;2023-04-06T12:03:32;98645.19;;;13.54;46.29
2184;BME280;1098;48.940;8.962;2023-04-06T12:06:00;98653.03;;;12.41;45.58
2184;BME280;1098;48.940;8.962;2023-04-06T12:08:29;98639.56;;;13.72;45.67
2184;BME280;1098;48.940;8.962;2023-04-06T12:10:57;98644.34;;;13.14;45.42
2184;BME280;1098;48.940;8.962;2023-04-06T12:13:26;98638.06;;;13.65;45.84
2184;BME280;1098;48.940;8.962;2023-04-06T12:15:54;98640.81;;;13.13;45.52
2184;BME280;1098;48.940;8.962;2023-04-06T12:18:24;98641.16;;;13.57;44.56
2184;BME280;1098;48.940;8.962;2023-04-06T12:20:52;98633.13;;;13.10;44.67
2184;BME280;1098;48.940;8.962;2023-04-06T12:23:21;98630.69;;;13.20;43.80
2184;BME280;1098;48.940;8.962;2023-04-06T12:25:51;98638.00;;;13.08;44.96
2184;BME280;1098;48.940;8.962;2023-04-06T12:28:21;98628.25;;;13.47;44.22
2184;BME280;1098;48.940;8.962;2023-04-06T12:30:53;98633.56;;;13.42;44.53
2184;BME280;1098;48.940;8.962;2023-04-06T12:33:22;98628.94;;;13.02;44.93
2184;BME280;1098;48.940;8.962;2023-04-06T12:35:52;98620.94;;;13.36;45.42
2184;BME280;1098;48.940;8.962;2023-04-06T12:38:20;98623.41;;;12.86;44.77
2184;BME280;1098;48.940;8.962;2023-04-06T12:40:48;98617.28;;;13.42;44.75
2184;BME280;1098;48.940;8.962;2023-04-06T12:43:16;98623.03;;;13.05;44.40
2184;BME280;1098;48.940;8.962;2023-04-06T12:45:44;98614.53;;;14.32;47.09
2184;BME280;1098;48.940;8.962;2023-04-06T12:48:12;98612.00;;;13.81;43.92
2184;BME280;1098;48.940;8.962;2023-04-06T12:50:41;98608.66;;;14.07;43.26
2184;BME280;1098;48.940;8.962;2023-04-06T12:53:10;98602.34;;;14.90;42.72
2184;BME280;1098;48.940;8.962;2023-04-06T12:55:38;98610.38;;;13.96;44.36
2184;BME280;1098;48.940;8.962;2023-04-06T12:58:07;98611.34;;;13.73;42.91
2184;BME280;1098;48.940;8.962;2023-04-06T13:00:35;98607.47;;;13.41;42.72
2184;BME280;1098;48.940;8.962;2023-04-06T13:03:03;98607.41;;;13.81;43.01
2184;BME280;1098;48.940;8.962;2023-04-06T13:05:31;98606.00;;;13.79;43.92
2184;BME280;1098;48.940;8.962;2023-04-06T13:08:00;98608.72;;;13.79;43.79
2184;BME280;1098;48.940;8.962;2023-04-06T13:10:29;98604.47;;;13.99;44.04
2184;BME280;1098;48.940;8.962;2023-04-06T13:12:58;98600.34;;;14.30;44.60
2184;BME280;1098;48.940;8.962;2023-04-06T13:15:26;98597.75;;;13.73;43.11
2184;BME280;1098;48.940;8.962;2023-04-06T13:17:55;98592.91;;;14.59;42.97
2184;BME280;1098;48.940;8.962;2023-04-06T13:20:23;98584.94;;;14.02;41.04
2184;BME280;1098;48.940;8.962;2023-04-06T13:22:51;98591.22;;;13.86;42.14
2184;BME280;1098;48.940;8.962;2023-04-06T13:25:22;98589.69;;;13.79;42.51
2184;BME280;1098;48.940;8.962;2023-04-06T13:27:51;98585.75;;;14.70;41.47
2184;BME280;1098;48.940;8.962;2023-04-06T13:30:20;98594.31;;;13.78;42.29
2184;BME280;1098;48.940;8.962;2023-04-06T13:32:48;98589.91;;;13.89;41.76
2184;BME280;1098;48.940;8.962;2023-04-06T13:35:17;98581.28;;;14.64;41.97
2184;BME280;1098;48.940;8.962;2023-04-06T13:37:45;98588.06;;;13.94;41.82